createdAt,value
2019-04-29T00:02:27.598Z,89.98
2019-04-29T00:04:58.067Z,90.47
2019-04-29T00:07:28.744Z,90.84
2019-04-29T00:09:59.564Z,91.06
2019-04-29T00:12:31.292Z,91.08
2019-04-29T00:15:09.406Z,91.07
2019-04-29T00:17:50.985Z,91.19
2019-04-29T00:20:33.781Z,91.03
2019-04-29T00:23:04.947Z,91.26
2019-04-29T00:25:35.845Z,90.97
2019-04-29T00:28:06.533Z,90.84
2019-04-29T00:30:36.949Z,90.72
2019-04-29T00:33:07.438Z,90.62
2019-04-29T00:35:38.203Z,90.61
2019-04-29T00:38:33.400Z,90.54
2019-04-29T00:41:21.807Z,90.59
2019-04-29T00:43:58.658Z,90.72
2019-04-29T00:46:29.469Z,90.73
2019-04-29T00:49:00.420Z,90.90
2019-04-29T00:51:30.901Z,90.97
2019-04-29T00:54:12.279Z,90.94
2019-04-29T00:56:42.519Z,90.84
2019-04-29T00:59:13.012Z,91.01
2019-04-29T01:01:43.594Z,91.18
2019-04-29T01:04:14.062Z,91.20
2019-04-29T01:06:44.558Z,91.27
2019-04-29T01:09:16.669Z,91.72
2019-04-29T01:11:47.204Z,91.87
2019-04-29T01:14:17.640Z,91.72
2019-04-29T01:16:51.266Z,92.05
2019-04-29T01:19:21.790Z,92.34
2019-04-29T01:21:52.244Z,92.48
2019-04-29T01:24:22.799Z,92.61
2019-04-29T01:27:30.295Z,92.61
2019-04-29T01:30:00.712Z,92.71
2019-04-29T01:32:31.136Z,92.78
2019-04-29T01:35:01.680Z,92.77
2019-04-29T01:37:36.803Z,92.86
2019-04-29T01:40:29.569Z,92.74
2019-04-29T01:43:00.009Z,93.00
2019-04-29T01:45:30.532Z,93.09
2019-04-29T01:48:00.957Z,93.12
2019-04-29T01:50:31.491Z,93.18
2019-04-29T01:53:02.311Z,92.97
2019-04-29T01:55:32.748Z,92.97
2019-04-29T01:58:03.199Z,93.07
2019-04-29T02:00:33.725Z,93.48
2019-04-29T02:03:04.237Z,93.41
2019-04-29T02:05:34.666Z,93.25
2019-04-29T02:08:05.154Z,93.25
2019-04-29T02:10:35.689Z,93.18
2019-04-29T02:13:06.261Z,93.49
2019-04-29T02:15:37.087Z,93.53
2019-04-29T02:18:07.553Z,93.99
2019-04-29T02:20:38.104Z,93.74
2019-04-29T02:23:33.862Z,93.90
2019-04-29T02:26:04.456Z,93.68
2019-04-29T02:28:34.909Z,93.77
2019-04-29T02:31:23.243Z,93.78
2019-04-29T02:33:53.672Z,93.98
2019-04-29T02:36:24.310Z,94.02
2019-04-29T02:39:07.359Z,94.03
2019-04-29T02:41:45.772Z,94.22
2019-04-29T02:44:16.278Z,94.39
2019-04-29T02:46:46.885Z,94.70
2019-04-29T02:49:17.524Z,94.64
2019-04-29T02:51:53.173Z,94.79
2019-04-29T02:54:25.283Z,94.50
2019-04-29T02:57:10.453Z,94.48
2019-04-29T03:00:08.514Z,94.33
2019-04-29T03:02:47.646Z,94.30
2019-04-29T03:05:21.567Z,94.28
2019-04-29T03:07:52.084Z,94.37
2019-04-29T03:10:22.696Z,94.56
2019-04-29T03:12:53.138Z,94.81
2019-04-29T03:15:32.778Z,94.77
2019-04-29T03:18:03.749Z,94.78
2019-04-29T03:20:46.832Z,94.65
2019-04-29T03:23:19.018Z,94.86
2019-04-29T03:25:49.427Z,95.06
2019-04-29T03:28:19.857Z,94.85
2019-04-29T03:30:50.519Z,94.90
2019-04-29T03:33:20.899Z,94.89
2019-04-29T03:35:51.376Z,94.93
2019-04-29T03:38:21.882Z,95.10
2019-04-29T03:40:52.462Z,95.02
2019-04-29T03:43:22.924Z,94.81
2019-04-29T03:45:53.557Z,95.03
2019-04-29T03:48:24.001Z,95.04
2019-04-29T03:50:56.176Z,95.14
2019-04-29T03:53:28.479Z,95.39
2019-04-29T03:55:58.851Z,95.37
2019-04-29T03:58:29.348Z,95.57
2019-04-29T04:01:08.132Z,95.49
2019-04-29T04:03:43.749Z,95.60
2019-04-29T04:06:37.754Z,95.73
2019-04-29T04:09:17.484Z,95.83
2019-04-29T04:11:47.983Z,96.08
2019-04-29T04:14:38.164Z,96.00
2019-04-29T04:17:23.721Z,95.73
2019-04-29T04:19:54.475Z,95.62
2019-04-29T04:22:25.371Z,95.40
2019-04-29T04:24:55.895Z,95.34
2019-04-29T04:27:26.517Z,95.28
2019-04-29T04:29:57.206Z,95.21
2019-04-29T04:32:27.782Z,95.08
2019-04-29T04:34:58.326Z,95.41
2019-04-29T04:37:28.877Z,95.47
2019-04-29T04:39:59.532Z,95.44
2019-04-29T04:42:30.437Z,95.32
2019-04-29T04:45:00.994Z,95.30
2019-04-29T04:47:31.590Z,95.18
2019-04-29T04:50:03.042Z,94.99
2019-04-29T04:52:33.843Z,95.27
2019-04-29T04:55:04.664Z,95.39
2019-04-29T04:57:35.821Z,95.65
2019-04-29T05:00:09.399Z,95.50
2019-04-29T05:02:42.920Z,95.35
2019-04-29T05:05:13.791Z,95.35
2019-04-29T05:07:44.405Z,95.30
2019-04-29T05:10:14.924Z,95.37
2019-04-29T05:12:45.374Z,95.18
2019-04-29T05:15:16.138Z,95.32
2019-04-29T05:17:46.681Z,95.41
2019-04-29T05:20:17.506Z,94.93
2019-04-29T05:23:00.346Z,94.77
2019-04-29T05:25:34.097Z,94.43
2019-04-29T05:28:05.899Z,93.94
2019-04-29T05:30:36.498Z,93.60
2019-04-29T05:33:06.980Z,93.16
2019-04-29T05:35:56.806Z,93.08
2019-04-29T05:38:28.718Z,92.92
2019-04-29T05:40:59.187Z,92.91
2019-04-29T05:43:48.659Z,92.47
2019-04-29T05:46:34.799Z,91.98
2019-04-29T05:49:07.183Z,91.36
2019-04-29T05:52:09.108Z,90.84
2019-04-29T05:54:39.541Z,90.46
2019-04-29T05:57:10.381Z,90.42
2019-04-29T05:59:43.440Z,89.99
2019-04-29T06:02:13.058Z,89.75
2019-04-29T06:04:43.537Z,88.38
2019-04-29T06:07:16.926Z,88.03
2019-04-29T06:09:46.454Z,87.69
2019-04-29T06:12:16.960Z,87.11
2019-04-29T06:14:47.519Z,87.85
2019-04-29T06:17:18.026Z,88.10
2019-04-29T06:19:48.529Z,88.24
2019-04-29T06:22:19.034Z,88.37
2019-04-29T06:24:49.481Z,88.72
2019-04-29T06:27:19.934Z,89.00
2019-04-29T06:29:50.832Z,89.84
2019-04-29T06:32:24.875Z,90.90
2019-04-29T06:34:53.548Z,91.07
2019-04-29T06:37:24.101Z,91.48
2019-04-29T06:39:54.628Z,91.16
2019-04-29T06:42:25.120Z,90.16
2019-04-29T06:44:55.747Z,88.87
2019-04-29T06:47:26.182Z,86.74
2019-04-29T06:49:57.194Z,85.04
2019-04-29T06:52:27.853Z,83.13
2019-04-29T06:54:58.465Z,80.96
2019-04-29T06:57:28.915Z,81.25
2019-04-29T06:59:59.357Z,81.16
2019-04-29T07:02:29.867Z,80.27
2019-04-29T07:05:00.480Z,79.51
2019-04-29T07:07:30.982Z,79.33
2019-04-29T07:10:01.608Z,78.44
2019-04-29T07:12:32.085Z,77.65
2019-04-29T07:15:02.530Z,75.76
2019-04-29T07:17:36.390Z,75.33
2019-04-29T07:20:05.984Z,73.30
2019-04-29T07:22:36.437Z,72.53
2019-04-29T07:25:07.345Z,72.21
2019-04-29T07:27:43.084Z,72.08
2019-04-29T07:30:11.248Z,70.90
2019-04-29T07:32:46.481Z,72.38
2019-04-29T07:35:14.494Z,72.91
2019-04-29T07:37:45.503Z,71.60
2019-04-29T07:40:16.484Z,70.81
2019-04-29T07:42:47.542Z,70.35
2019-04-29T07:45:44.251Z,70.21
2019-04-29T07:48:12.625Z,70.35
2019-04-29T07:50:43.136Z,70.06
2019-04-29T07:53:13.619Z,70.63
2019-04-29T07:55:44.141Z,71.23
2019-04-29T07:58:14.659Z,70.69
2019-04-29T08:00:48.842Z,70.89
2019-04-29T08:03:17.436Z,69.26
2019-04-29T08:05:48.633Z,69.75
2019-04-29T08:08:21.283Z,70.03
2019-04-29T08:10:56.452Z,70.82
2019-04-29T08:13:27.155Z,70.85
2019-04-29T08:15:57.766Z,71.24
2019-04-29T08:18:28.294Z,71.59
2019-04-29T08:20:58.910Z,70.47
2019-04-29T08:23:33.122Z,71.66
2019-04-29T08:26:04.108Z,71.18
2019-04-29T08:28:34.415Z,71.88
2019-04-29T08:31:04.913Z,72.91
2019-04-29T08:33:35.521Z,74.46
2019-04-29T08:36:06.110Z,73.48
2019-04-29T08:38:36.562Z,73.75
2019-04-29T08:41:07.120Z,73.04
2019-04-29T08:43:47.369Z,72.71
2019-04-29T08:46:25.197Z,71.40
2019-04-29T08:48:56.220Z,70.76
2019-04-29T08:51:26.778Z,69.41
2019-04-29T08:53:57.310Z,70.11
2019-04-29T08:56:27.984Z,70.46
2019-04-29T08:58:58.491Z,69.27
2019-04-29T09:01:33.559Z,68.29
2019-04-29T09:04:01.340Z,66.91
2019-04-29T09:06:32.664Z,66.19
2019-04-29T09:09:10.667Z,65.32
2019-04-29T09:11:37.411Z,64.84
2019-04-29T09:14:08.002Z,63.05
2019-04-29T09:16:38.469Z,62.25
2019-04-29T09:19:08.978Z,61.33
2019-04-29T09:21:43.684Z,58.98
2019-04-29T09:24:14.195Z,57.44
2019-04-29T09:26:53.903Z,57.24
2019-04-29T09:29:37.654Z,55.22
2019-04-29T09:32:08.239Z,55.87
2019-04-29T09:34:38.772Z,55.73
2019-04-29T09:37:09.256Z,55.00
2019-04-29T09:39:43.825Z,54.54
2019-04-29T09:42:31.203Z,54.09
2019-04-29T09:45:14.652Z,52.88
2019-04-29T09:47:43.656Z,54.79
2019-04-29T09:50:14.481Z,54.15
2019-04-29T09:52:45.122Z,55.18
2019-04-29T09:55:16.363Z,57.83
2019-04-29T09:57:46.844Z,55.94
2019-04-29T10:00:28.569Z,54.05
2019-04-29T10:03:11.068Z,52.16
2019-04-29T10:05:44.916Z,51.20
2019-04-29T10:08:15.555Z,50.18
2019-04-29T10:10:46.846Z,49.87
2019-04-29T10:13:17.850Z,51.49
2019-04-29T10:16:14.516Z,52.80
2019-04-29T10:19:16.038Z,53.02
2019-04-29T10:21:46.768Z,49.97
2019-04-29T10:24:17.560Z,51.30
2019-04-29T10:26:48.013Z,49.71
2019-04-29T10:29:20.855Z,53.01
2019-04-29T10:31:51.397Z,54.60
2019-04-29T10:34:22.498Z,55.66
2019-04-29T10:36:53.752Z,53.24
2019-04-29T10:39:46.252Z,54.71
2019-04-29T10:42:23.527Z,54.69
2019-04-29T10:45:22.101Z,55.91
2019-04-29T10:48:05.177Z,56.98
2019-04-29T10:50:37.708Z,55.21
2019-04-29T10:53:10.888Z,52.84
2019-04-29T10:55:42.907Z,50.90
2019-04-29T10:58:13.838Z,46.91
2019-04-29T11:02:01.808Z,45.56
2019-04-29T11:04:31.737Z,41.47
2019-04-29T11:07:19.069Z,39.22
2019-04-29T11:09:55.194Z,38.77
2019-04-29T11:12:25.704Z,41.83
2019-04-29T11:14:56.421Z,44.50
2019-04-29T11:17:27.956Z,47.25
2019-04-29T11:19:58.662Z,49.37
2019-04-29T11:22:33.946Z,52.44
2019-04-29T11:25:33.406Z,54.21
2019-04-29T11:28:03.860Z,54.97
2019-04-29T11:30:39.338Z,55.00
2019-04-29T11:33:23.255Z,55.24
2019-04-29T11:36:03.918Z,56.38
2019-04-29T11:38:38.212Z,55.51
2019-04-29T11:41:06.903Z,49.64
2019-04-29T11:43:40.653Z,44.66
2019-04-29T11:46:14.450Z,48.58
2019-04-29T11:48:43.759Z,51.90
2019-04-29T11:51:27.809Z,52.66
2019-04-29T11:53:58.769Z,53.87
2019-04-29T11:56:29.453Z,56.60
2019-04-29T11:59:25.416Z,54.78
2019-04-29T12:02:14.104Z,52.34
2019-04-29T12:04:49.289Z,50.22
2019-04-29T12:07:21.250Z,52.04
2019-04-29T12:09:51.955Z,52.69
2019-04-29T12:12:24.266Z,49.26
2019-04-29T12:15:13.734Z,51.50
2019-04-29T12:18:13.253Z,52.93
2019-04-29T12:20:52.013Z,53.39
2019-04-29T12:23:22.474Z,54.56
2019-04-29T12:25:52.937Z,55.36
2019-04-29T12:28:23.450Z,55.60
2019-04-29T12:30:55.657Z,54.78
2019-04-29T12:33:38.318Z,54.84
2019-04-29T12:36:11.135Z,53.70
2019-04-29T12:38:58.961Z,52.51
2019-04-29T12:41:51.605Z,51.37
2019-04-29T12:44:40.031Z,47.31
2019-04-29T12:47:26.927Z,43.79
2019-04-29T12:49:53.813Z,46.06
2019-04-29T12:52:25.160Z,46.61
2019-04-29T12:54:55.561Z,44.86
2019-04-29T12:57:26.121Z,45.53
2019-04-29T12:59:56.649Z,43.72
2019-04-29T13:02:59.408Z,45.93
2019-04-29T13:05:59.824Z,46.82
2019-04-29T13:08:47.237Z,45.04
2019-04-29T13:11:21.029Z,45.24
2019-04-29T13:13:56.526Z,43.44
2019-04-29T13:16:45.890Z,43.52
2019-04-29T13:19:35.407Z,42.38
2019-04-29T13:22:05.973Z,42.28
2019-04-29T13:24:38.586Z,42.08
2019-04-29T13:27:15.971Z,42.54
2019-04-29T13:29:40.677Z,42.76
2019-04-29T13:32:11.198Z,42.17
2019-04-29T13:34:43.634Z,41.91
2019-04-29T13:37:18.991Z,41.86
2019-04-29T13:39:46.434Z,42.06
2019-04-29T13:42:16.926Z,41.15
2019-04-29T13:45:05.358Z,40.63
2019-04-29T13:47:33.673Z,40.97
2019-04-29T13:50:39.434Z,40.89
2019-04-29T13:53:01.642Z,41.12
2019-04-29T13:55:47.950Z,41.33
2019-04-29T13:58:04.613Z,41.15
2019-04-29T14:00:55.684Z,39.81
2019-04-29T14:03:37.000Z,39.95
2019-04-29T14:06:08.570Z,40.11
2019-04-29T14:08:39.019Z,41.07
2019-04-29T14:11:09.586Z,41.06
2019-04-29T14:13:43.190Z,40.12
2019-04-29T14:16:13.298Z,41.33
2019-04-29T14:18:48.263Z,41.80
2019-04-29T14:21:16.021Z,41.92
2019-04-29T14:23:46.665Z,43.52
2019-04-29T14:26:17.161Z,42.34
2019-04-29T14:28:47.606Z,40.71
2019-04-29T14:31:18.752Z,41.26
2019-04-29T14:34:00.501Z,42.37
2019-04-29T14:36:31.680Z,41.15
2019-04-29T14:39:02.217Z,41.18
2019-04-29T14:41:34.765Z,42.55
2019-04-29T14:44:26.511Z,40.99
2019-04-29T14:47:11.437Z,40.80
2019-04-29T14:49:54.913Z,41.79
2019-04-29T14:52:24.223Z,45.43
2019-04-29T14:54:54.738Z,45.78
2019-04-29T14:57:27.134Z,46.90
2019-04-29T14:59:57.896Z,48.45
2019-04-29T15:02:28.659Z,49.41
2019-04-29T15:04:59.190Z,50.06
2019-04-29T15:07:36.241Z,51.10
2019-04-29T15:10:09.022Z,51.22
2019-04-29T15:13:06.704Z,51.51
2019-04-29T15:16:03.844Z,51.47
2019-04-29T15:18:50.651Z,52.91
2019-04-29T15:21:45.609Z,53.67
2019-04-29T15:24:17.609Z,53.22
2019-04-29T15:26:48.153Z,53.54
2019-04-29T15:29:18.829Z,53.02
2019-04-29T15:31:49.309Z,52.36
2019-04-29T15:34:19.877Z,52.48
2019-04-29T15:36:50.417Z,54.46
2019-04-29T15:39:25.458Z,54.35
2019-04-29T15:41:56.569Z,52.14
2019-04-29T15:44:27.006Z,53.44
2019-04-29T15:46:57.488Z,53.33
2019-04-29T15:49:28.346Z,52.09
2019-04-29T15:51:58.777Z,53.99
2019-04-29T15:54:29.275Z,54.94
2019-04-29T15:57:03.655Z,55.06
2019-04-29T15:59:49.182Z,56.39
2019-04-29T16:02:17.346Z,57.13
2019-04-29T16:04:54.710Z,57.43
2019-04-29T16:07:46.603Z,58.40
2019-04-29T16:10:38.891Z,57.63
2019-04-29T16:13:10.866Z,57.66
2019-04-29T16:15:41.352Z,57.54
2019-04-29T16:18:14.893Z,59.11
2019-04-29T16:20:44.150Z,59.71
2019-04-29T16:23:17.346Z,61.40
2019-04-29T16:25:52.454Z,62.50
2019-04-29T16:28:24.124Z,62.94
2019-04-29T16:30:52.661Z,61.53
2019-04-29T16:33:23.218Z,60.67
2019-04-29T16:35:57.716Z,62.74
2019-04-29T16:38:26.031Z,62.55
2019-04-29T16:41:04.896Z,63.33
2019-04-29T16:43:39.244Z,61.51
2019-04-29T16:46:12.969Z,61.82
2019-04-29T16:48:43.840Z,62.27
2019-04-29T16:51:16.673Z,63.64
2019-04-29T16:53:48.012Z,63.10
2019-04-29T16:56:18.549Z,63.42
2019-04-29T16:58:49.025Z,64.80
2019-04-29T17:01:20.521Z,64.69
2019-04-29T17:03:51.417Z,64.16
2019-04-29T17:06:22.666Z,65.13
2019-04-29T17:09:11.126Z,64.77
2019-04-29T17:11:41.959Z,65.61
2019-04-29T17:14:13.082Z,67.28
2019-04-29T17:16:43.900Z,65.60
2019-04-29T17:19:14.362Z,66.49
2019-04-29T17:21:45.029Z,68.76
2019-04-29T17:24:15.475Z,68.22
2019-04-29T17:27:05.030Z,68.36
2019-04-29T17:30:07.815Z,68.44
2019-04-29T17:32:59.951Z,69.27
2019-04-29T17:35:33.676Z,70.63
2019-04-29T17:38:04.309Z,69.39
2019-04-29T17:40:35.238Z,71.08
2019-04-29T17:43:14.920Z,72.51
2019-04-29T17:45:55.101Z,71.97
2019-04-29T17:48:44.568Z,72.22
2019-04-29T17:51:17.169Z,73.14
2019-04-29T17:53:51.993Z,73.32
2019-04-29T17:57:16.209Z,73.19
2019-04-29T17:59:45.845Z,72.15
2019-04-29T18:02:32.998Z,72.43
2019-04-29T18:05:21.003Z,73.58
2019-04-29T18:07:57.239Z,73.32
2019-04-29T18:10:35.112Z,73.01
2019-04-29T18:13:06.930Z,71.69
2019-04-29T18:15:57.615Z,72.95
2019-04-29T18:18:19.259Z,72.68
2019-04-29T18:21:27.086Z,73.06
2019-04-29T18:24:37.242Z,73.14
2019-04-29T18:27:10.424Z,73.85
2019-04-29T18:29:41.880Z,74.72
2019-04-29T18:32:13.256Z,74.72
2019-04-29T18:34:45.286Z,75.14
2019-04-29T18:37:16.756Z,74.85
2019-04-29T18:39:47.484Z,75.46
2019-04-29T18:42:18.050Z,75.13
2019-04-29T18:44:57.911Z,74.01
2019-04-29T18:47:23.077Z,72.96
2019-04-29T18:49:53.121Z,72.41
2019-04-29T18:52:26.537Z,73.30
2019-04-29T18:54:55.757Z,73.49
2019-04-29T18:57:30.520Z,73.46
2019-04-29T18:59:58.510Z,73.28
2019-04-29T19:02:32.136Z,73.11
2019-04-29T19:05:09.182Z,73.30
2019-04-29T19:07:40.101Z,74.57
2019-04-29T19:10:14.217Z,75.67
2019-04-29T19:12:44.627Z,76.49
2019-04-29T19:15:17.829Z,77.19
2019-04-29T19:17:58.832Z,77.63
2019-04-29T19:20:20.834Z,78.33
2019-04-29T19:22:59.713Z,78.66
2019-04-29T19:25:25.431Z,78.74
2019-04-29T19:27:57.579Z,77.57
2019-04-29T19:30:29.306Z,78.89
2019-04-29T19:33:00.684Z,78.50
2019-04-29T19:35:37.011Z,78.59
2019-04-29T19:38:06.709Z,79.18
2019-04-29T19:40:41.204Z,78.47
2019-04-29T19:43:10.217Z,79.21
2019-04-29T19:45:44.589Z,78.20
2019-04-29T19:48:15.972Z,78.91
2019-04-29T19:50:51.684Z,78.02
2019-04-29T19:53:18.103Z,79.04
2019-04-29T19:56:01.021Z,78.22
2019-04-29T19:58:28.416Z,78.02
2019-04-29T20:00:55.643Z,78.39
2019-04-29T20:03:35.844Z,79.81
2019-04-29T20:06:09.075Z,80.44
2019-04-29T20:08:50.992Z,81.02
2019-04-29T20:11:14.599Z,81.66
2019-04-29T20:13:41.213Z,81.06
2019-04-29T20:16:43.312Z,80.30
2019-04-29T20:19:21.403Z,80.70
2019-04-29T20:21:51.775Z,80.77
2019-04-29T20:24:23.514Z,81.85
2019-04-29T20:26:54.955Z,80.99
2019-04-29T20:29:28.599Z,81.00
2019-04-29T20:31:58.007Z,80.80
2019-04-29T20:34:28.743Z,81.44
2019-04-29T20:36:59.488Z,81.88
2019-04-29T20:39:30.135Z,81.53
2019-04-29T20:42:05.532Z,81.45
2019-04-29T20:44:36.587Z,81.86
2019-04-29T20:47:19.375Z,82.18
2019-04-29T20:49:39.591Z,81.72
2019-04-29T20:52:25.951Z,82.46
2019-04-29T20:55:00.845Z,82.73
2019-04-29T20:57:28.896Z,82.79
2019-04-29T20:59:59.496Z,82.43
2019-04-29T21:02:34.378Z,82.09
2019-04-29T21:05:02.224Z,82.62
2019-04-29T21:07:32.894Z,82.85
2019-04-29T21:10:06.794Z,82.98
2019-04-29T21:13:08.885Z,83.27
2019-04-29T21:15:52.004Z,83.48
2019-04-29T21:18:18.996Z,84.11
2019-04-29T21:20:49.441Z,83.82
2019-04-29T21:23:20.143Z,83.34
2019-04-29T21:25:50.549Z,82.78
2019-04-29T21:28:21.155Z,82.83
2019-04-29T21:30:52.111Z,82.94
2019-04-29T21:33:22.776Z,83.12
2019-04-29T21:36:03.163Z,82.70
2019-04-29T21:38:55.721Z,83.17
2019-04-29T21:41:35.878Z,83.06
2019-04-29T21:44:07.582Z,82.99
2019-04-29T21:46:38.269Z,82.61
2019-04-29T21:49:11.746Z,82.56
2019-04-29T21:51:41.873Z,82.76
2019-04-29T21:54:14.232Z,82.72
2019-04-29T21:56:47.783Z,82.56
2019-04-29T21:59:18.040Z,82.53
2019-04-29T22:01:48.471Z,82.14
2019-04-29T22:04:18.906Z,81.25
2019-04-29T22:06:49.414Z,81.57
2019-04-29T22:09:21.058Z,80.76
2019-04-29T22:11:51.607Z,80.64
2019-04-29T22:14:22.074Z,80.35
2019-04-29T22:16:54.288Z,79.87
2019-04-29T22:19:28.034Z,79.98
2019-04-29T22:22:01.553Z,79.91
2019-04-29T22:24:30.107Z,79.38
2019-04-29T22:27:03.969Z,79.47
2019-04-29T22:29:37.334Z,80.15
2019-04-29T22:32:09.256Z,79.85
2019-04-29T22:34:38.049Z,79.72
2019-04-29T22:37:09.519Z,79.06
2019-04-29T22:39:40.029Z,78.81
2019-04-29T22:42:31.313Z,79.12
2019-04-29T22:45:01.876Z,79.27
2019-04-29T22:47:32.430Z,78.96
2019-04-29T22:50:04.524Z,78.63
2019-04-29T22:52:38.245Z,78.73
2019-04-29T22:55:08.931Z,78.32
2019-04-29T22:57:39.591Z,78.24
2019-04-29T23:00:15.101Z,78.19
2019-04-29T23:02:45.371Z,78.26
2019-04-29T23:05:15.965Z,78.21
2019-04-29T23:07:46.403Z,78.16
2019-04-29T23:10:19.735Z,78.74
2019-04-29T23:12:49.303Z,78.71
2019-04-29T23:15:23.463Z,78.68
2019-04-29T23:17:52.463Z,78.84
2019-04-29T23:20:40.705Z,78.83
2019-04-29T23:23:16.682Z,79.35
2019-04-29T23:25:59.965Z,79.57
2019-04-29T23:28:28.675Z,79.80
2019-04-29T23:30:59.710Z,79.77
2019-04-29T23:33:30.363Z,80.22
2019-04-29T23:36:01.113Z,80.35
2019-04-29T23:38:32.428Z,80.51
2019-04-29T23:41:05.135Z,80.39
2019-04-29T23:43:36.181Z,80.55
2019-04-29T23:46:08.226Z,80.70
2019-04-29T23:51:46.608Z,80.80
2019-04-29T23:54:17.203Z,80.84
2019-04-29T23:57:16.342Z,80.84
